Lynchburg, VA (24506)

5:57 PM EDT on July 01, 2015 (GMT -0400)
Concord Turnpike | | Change Station
CLOSE
Current Station
Personal Weather Station
Location: Lynchburg, VA
Elevation: 543 ft
Nearby Weather Stations

Elev 543 ft 37.40 °N, 79.11 °W | Updated 1 minute ago

Clear
Clear
85.2 °F
Feels Like 86 °F
N
1.6
Wind Variable Wind from South
Gusts 5.5 mph

Today
High -- | Low -- °F
--% Chance of Precip.
Yesterday
High -- | Low -- °F
Precip. -- in
5:59 AM 8:41 PM
Full, 100% visible
Pressure 29.88 in
Visibility 10.0 miles
Clouds Clear
Heat Index 86 °F
Dew Point 64 °F
Humidity 49%
Rainfall 0.18 in
Snow Depth Not available.
UV 3 out of 12
Pollen 3.80 out of 12
Air Quality Not available.
Flu Activity Not available.
METAR KLYH 012154Z 20008KT 10SM CLR 28/18 A2991 RMK AO2 SLP119 T02780183

More Conditions Fewer Conditions

Pressure 29.88 in
Visibility 10.0 miles
Clouds Clear
Heat Index 86 °F
Dew Point 64 °F
Humidity 49%
Rainfall 0.18 in
Snow Depth Not available.
UV 3 out of 12
Pollen 3.80 out of 12
Air Quality Not available.
Flu Activity Not available.
METAR KLYH 012154Z 20008KT 10SM CLR 28/18 A2991 RMK AO2 SLP119 T02780183

More Conditions Fewer Conditions

10-Day Weather Forecast

×

Almanac

Astronomy

Jul. 01, 2015 Rise Set
Actual Time
Civil Twilight
Nautical Twilight
Astronomical Twilight
Moon
Length of Visible Light
Length of Day
Tomorrow will be .
, % of the Moon is Illuminated

Today's Extremes

State Highs State Lows

Community

WunderPhotos

Upload Photos

1,834,295 photos uploaded!

WunderBlogs® & News

Nearby

Air Quality

  Air Quality AQ Index Pollutant
Not available.

Snow Depth

Station Depth Elevation

Earthquake Activity

City Distance Mag. Time & Date
Minimum magnitude displayed is 2.5.

Coastal Water Temperatures

Place Temperature

Stations

Nearby Weather Stations

Station Location Temp. Windchill Dew Point Humidity Wind Precip. Elev Updated Type